sensor_id;sensor_type;location;lat;lon;timestamp;pressure;altitude;pressure_sealevel;temperature;humidity
3122;BME280;1571;52.524;14.104;2023-11-22T00:00:06;101979.72;;;-0.45;91.69
3122;BME280;1571;52.524;14.104;2023-11-22T00:02:34;101980.63;;;-0.45;91.42
3122;BME280;1571;52.524;14.104;2023-11-22T00:05:04;101973.66;;;-0.53;91.08
3122;BME280;1571;52.524;14.104;2023-11-22T00:07:33;101989.31;;;-0.46;90.52
3122;BME280;1571;52.524;14.104;2023-11-22T00:10:03;102001.50;;;-0.45;90.19
3122;BME280;1571;52.524;14.104;2023-11-22T00:12:31;102006.69;;;-0.48;89.72
3122;BME280;1571;52.524;14.104;2023-11-22T00:15:04;102019.72;;;-0.52;89.30
3122;BME280;1571;52.524;14.104;2023-11-22T00:17:34;102022.34;;;-0.49;88.76
3122;BME280;1571;52.524;14.104;2023-11-22T00:20:03;102023.22;;;-0.50;88.41
3122;BME280;1571;52.524;14.104;2023-11-22T00:22:33;102020.59;;;-0.50;87.92
3122;BME280;1571;52.524;14.104;2023-11-22T00:25:03;102024.91;;;-0.63;88.12
3122;BME280;1571;52.524;14.104;2023-11-22T00:27:31;102033.56;;;-0.66;88.03
3122;BME280;1571;52.524;14.104;2023-11-22T00:30:00;102038.81;;;-0.63;87.49
3122;BME280;1571;52.524;14.104;2023-11-22T00:32:28;102042.28;;;-0.67;87.46
3122;BME280;1571;52.524;14.104;2023-11-22T00:34:56;102038.78;;;-0.72;87.55
3122;BME280;1571;52.524;14.104;2023-11-22T00:37:25;102037.84;;;-0.83;87.16
3122;BME280;1571;52.524;14.104;2023-11-22T00:39:54;102036.97;;;-0.85;86.88
3122;BME280;1571;52.524;14.104;2023-11-22T00:42:23;102038.75;;;-0.81;85.77
3122;BME280;1571;52.524;14.104;2023-11-22T00:44:51;102043.94;;;-0.81;85.13
3122;BME280;1571;52.524;14.104;2023-11-22T00:47:20;102067.44;;;-0.73;85.08
3122;BME280;1571;52.524;14.104;2023-11-22T00:49:49;102072.66;;;-0.78;84.90
3122;BME280;1571;52.524;14.104;2023-11-22T00:52:17;102080.41;;;-0.84;84.58
3122;BME280;1571;52.524;14.104;2023-11-22T00:54:46;102078.66;;;-0.91;84.38
3122;BME280;1571;52.524;14.104;2023-11-22T00:57:14;102074.31;;;-0.89;84.09
3122;BME280;1571;52.524;14.104;2023-11-22T00:59:44;102076.06;;;-0.84;83.89
3122;BME280;1571;52.524;14.104;2023-11-22T01:02:12;102094.34;;;-0.85;83.63
3122;BME280;1571;52.524;14.104;2023-11-22T01:04:40;102095.13;;;-0.95;84.01
3122;BME280;1571;52.524;14.104;2023-11-22T01:07:08;102096.88;;;-0.94;83.65
3122;BME280;1571;52.524;14.104;2023-11-22T01:09:37;102082.06;;;-0.98;83.37
3122;BME280;1571;52.524;14.104;2023-11-22T01:12:06;102089.00;;;-1.02;83.44
3122;BME280;1571;52.524;14.104;2023-11-22T01:14:36;102083.75;;;-1.10;83.91
3122;BME280;1571;52.524;14.104;2023-11-22T01:17:06;102085.47;;;-1.09;83.86
3122;BME280;1571;52.524;14.104;2023-11-22T01:19:35;102093.34;;;-1.02;83.66
3122;BME280;1571;52.524;14.104;2023-11-22T01:22:04;102097.72;;;-0.95;83.77
3122;BME280;1571;52.524;14.104;2023-11-22T01:24:33;102093.31;;;-1.04;84.18
3122;BME280;1571;52.524;14.104;2023-11-22T01:27:01;102089.84;;;-1.08;83.96
3122;BME280;1571;52.524;14.104;2023-11-22T01:29:29;102091.50;;;-1.13;84.27
3122;BME280;1571;52.524;14.104;2023-11-22T01:31:58;102088.91;;;-1.13;84.27
3122;BME280;1571;52.524;14.104;2023-11-22T01:34:27;102099.50;;;-0.94;84.44
3122;BME280;1571;52.524;14.104;2023-11-22T01:36:56;102107.22;;;-1.05;84.45
3122;BME280;1571;52.524;14.104;2023-11-22T01:39:24;102117.50;;;-1.22;84.67
3122;BME280;1571;52.524;14.104;2023-11-22T01:41:53;102130.53;;;-1.22;84.72
3122;BME280;1571;52.524;14.104;2023-11-22T01:44:21;102133.09;;;-1.30;84.82
3122;BME280;1571;52.524;14.104;2023-11-22T01:46:50;102134.00;;;-1.24;84.83
3122;BME280;1571;52.524;14.104;2023-11-22T01:49:19;102139.16;;;-1.32;85.17
3122;BME280;1571;52.524;14.104;2023-11-22T01:51:48;102127.94;;;-1.23;84.59
3122;BME280;1571;52.524;14.104;2023-11-22T01:54:18;102133.94;;;-1.32;84.54
3122;BME280;1571;52.524;14.104;2023-11-22T01:56:48;102123.53;;;-1.29;84.59
3122;BME280;1571;52.524;14.104;2023-11-22T01:59:17;102128.78;;;-1.26;84.42
3122;BME280;1571;52.524;14.104;2023-11-22T02:01:46;102126.94;;;-1.36;84.64
3122;BME280;1571;52.524;14.104;2023-11-22T02:04:15;102137.34;;;-1.39;84.39
3122;BME280;1571;52.524;14.104;2023-11-22T02:06:43;102141.78;;;-1.29;84.74
3122;BME280;1571;52.524;14.104;2023-11-22T02:09:13;102141.72;;;-1.37;84.77
3122;BME280;1571;52.524;14.104;2023-11-22T02:11:42;102141.78;;;-1.29;84.79
3122;BME280;1571;52.524;14.104;2023-11-22T02:14:12;102140.72;;;-1.47;85.15
3122;BME280;1571;52.524;14.104;2023-11-22T02:16:41;102134.63;;;-1.52;85.58
3122;BME280;1571;52.524;14.104;2023-11-22T02:19:14;102121.59;;;-1.52;85.88
3122;BME280;1571;52.524;14.104;2023-11-22T02:21:43;102125.91;;;-1.55;86.10
3122;BME280;1571;52.524;14.104;2023-11-22T02:24:13;102129.34;;;-1.58;85.40
3122;BME280;1571;52.524;14.104;2023-11-22T02:26:45;102131.94;;;-1.58;85.29
3122;BME280;1571;52.524;14.104;2023-11-22T02:29:14;102130.22;;;-1.59;85.01
3122;BME280;1571;52.524;14.104;2023-11-22T02:31:43;102128.47;;;-1.60;84.83
3122;BME280;1571;52.524;14.104;2023-11-22T02:34:11;102136.34;;;-1.52;84.55
3122;BME280;1571;52.524;14.104;2023-11-22T02:36:41;102145.84;;;-1.59;84.40
3122;BME280;1571;52.524;14.104;2023-11-22T02:39:25;102145.81;;;-1.62;84.32
3122;BME280;1571;52.524;14.104;2023-11-22T02:41:57;102150.13;;;-1.62;84.08
3122;BME280;1571;52.524;14.104;2023-11-22T02:44:25;102163.19;;;-1.58;83.59
3122;BME280;1571;52.524;14.104;2023-11-22T02:46:54;102161.47;;;-1.59;83.33
3122;BME280;1571;52.524;14.104;2023-11-22T02:49:25;102156.22;;;-1.62;83.46
3122;BME280;1571;52.524;14.104;2023-11-22T02:51:53;102148.25;;;-1.77;83.88
3122;BME280;1571;52.524;14.104;2023-11-22T02:54:23;102160.50;;;-1.69;83.60
3122;BME280;1571;52.524;14.104;2023-11-22T02:56:51;102164.03;;;-1.63;83.66
3122;BME280;1571;52.524;14.104;2023-11-22T02:59:19;102164.88;;;-1.66;83.17
3122;BME280;1571;52.524;14.104;2023-11-22T03:01:48;102182.34;;;-1.54;82.97
3122;BME280;1571;52.524;14.104;2023-11-22T03:04:18;102182.06;;;-1.79;83.83
3122;BME280;1571;52.524;14.104;2023-11-22T03:06:46;102182.19;;;-1.68;83.76
3122;BME280;1571;52.524;14.104;2023-11-22T03:09:15;102183.94;;;-1.67;83.84
3122;BME280;1571;52.524;14.104;2023-11-22T03:11:45;102178.69;;;-1.73;83.88
3122;BME280;1571;52.524;14.104;2023-11-22T03:14:13;102188.13;;;-1.78;84.00
3122;BME280;1571;52.524;14.104;2023-11-22T03:16:42;102187.19;;;-1.86;84.66
3122;BME280;1571;52.524;14.104;2023-11-22T03:19:11;102188.97;;;-1.84;85.24
3122;BME280;1571;52.524;14.104;2023-11-22T03:21:40;102197.56;;;-1.90;85.08
3122;BME280;1571;52.524;14.104;2023-11-22T03:24:11;102197.72;;;-1.77;85.04
3122;BME280;1571;52.524;14.104;2023-11-22T03:26:39;102222.34;;;-1.51;84.52
3122;BME280;1571;52.524;14.104;2023-11-22T03:29:09;102222.22;;;-1.60;84.24
3122;BME280;1571;52.524;14.104;2023-11-22T03:31:37;102232.56;;;-1.66;84.98
3122;BME280;1571;52.524;14.104;2023-11-22T03:34:07;102245.41;;;-1.78;84.86
3122;BME280;1571;52.524;14.104;2023-11-22T03:36:35;102243.72;;;-1.76;84.74
3122;BME280;1571;52.524;14.104;2023-11-22T03:39:04;102247.22;;;-1.74;84.95
3122;BME280;1571;52.524;14.104;2023-11-22T03:41:33;102246.13;;;-1.92;85.23
3122;BME280;1571;52.524;14.104;2023-11-22T03:44:01;102264.09;;;-2.10;85.51
3122;BME280;1571;52.524;14.104;2023-11-22T03:46:31;102257.31;;;-2.00;85.62
3122;BME280;1571;52.524;14.104;2023-11-22T03:48:59;102256.72;;;-1.79;85.49
3122;BME280;1571;52.524;14.104;2023-11-22T03:51:28;102253.28;;;-1.75;85.34
3122;BME280;1571;52.524;14.104;2023-11-22T03:53:56;102256.63;;;-1.85;85.92
3122;BME280;1571;52.524;14.104;2023-11-22T03:56:24;102266.38;;;-1.69;85.79
3122;BME280;1571;52.524;14.104;2023-11-22T03:58:53;102275.53;;;-1.99;85.64
3122;BME280;1571;52.524;14.104;2023-11-22T04:01:21;102285.91;;;-2.02;85.50
3122;BME280;1571;52.524;14.104;2023-11-22T04:03:51;102286.81;;;-2.00;85.75
3122;BME280;1571;52.524;14.104;2023-11-22T04:06:21;102294.53;;;-2.03;85.84
3122;BME280;1571;52.524;14.104;2023-11-22T04:08:50;102302.44;;;-1.97;85.71
3122;BME280;1571;52.524;14.104;2023-11-22T04:11:20;102302.22;;;-2.14;85.58
3122;BME280;1571;52.524;14.104;2023-11-22T04:13:48;102292.06;;;-1.95;85.48
3122;BME280;1571;52.524;14.104;2023-11-22T04:16:17;102289.38;;;-2.01;85.37
3122;BME280;1571;52.524;14.104;2023-11-22T04:18:46;102291.84;;;-2.11;85.89
3122;BME280;1571;52.524;14.104;2023-11-22T04:21:16;102289.22;;;-2.14;86.33
3122;BME280;1571;52.524;14.104;2023-11-22T04:23:44;102295.34;;;-2.08;86.65
3122;BME280;1571;52.524;14.104;2023-11-22T04:26:12;102301.19;;;-2.23;87.27
3122;BME280;1571;52.524;14.104;2023-11-22T04:28:41;102294.47;;;-2.07;87.40
3122;BME280;1571;52.524;14.104;2023-11-22T04:31:09;102297.69;;;-2.27;87.48
3122;BME280;1571;52.524;14.104;2023-11-22T04:33:37;102298.53;;;-2.26;87.84
3122;BME280;1571;52.524;14.104;2023-11-22T04:36:06;102291.50;;;-2.32;87.44
3122;BME280;1571;52.524;14.104;2023-11-22T04:38:36;102290.84;;;-2.20;86.75
3122;BME280;1571;52.524;14.104;2023-11-22T04:41:05;102296.81;;;-2.26;86.31
3122;BME280;1571;52.524;14.104;2023-11-22T04:43:33;102305.56;;;-2.22;86.23
3122;BME280;1571;52.524;14.104;2023-11-22T04:46:01;102304.72;;;-2.20;85.75
3122;BME280;1571;52.524;14.104;2023-11-22T04:48:31;102303.78;;;-2.23;85.92
3122;BME280;1571;52.524;14.104;2023-11-22T04:50:59;102301.38;;;-2.11;85.76
3122;BME280;1571;52.524;14.104;2023-11-22T04:53:27;102313.41;;;-2.19;85.56
3122;BME280;1571;52.524;14.104;2023-11-22T04:55:57;102324.59;;;-2.23;85.44
3122;BME280;1571;52.524;14.104;2023-11-22T04:58:26;102322.13;;;-2.14;85.79
3122;BME280;1571;52.524;14.104;2023-11-22T05:00:54;102328.09;;;-2.21;85.78
3122;BME280;1571;52.524;14.104;2023-11-22T05:03:22;102322.13;;;-2.14;85.85
3122;BME280;1571;52.524;14.104;2023-11-22T05:05:51;102320.16;;;-2.31;85.90
3122;BME280;1571;52.524;14.104;2023-11-22T05:08:19;102323.56;;;-2.36;86.44
3122;BME280;1571;52.524;14.104;2023-11-22T05:10:48;102324.53;;;-2.28;87.05
3122;BME280;1571;52.524;14.104;2023-11-22T05:13:17;102324.53;;;-2.28;86.94
3122;BME280;1571;52.524;14.104;2023-11-22T05:15:45;102316.34;;;-2.51;86.89
3122;BME280;1571;52.524;14.104;2023-11-22T05:18:14;102314.56;;;-2.55;87.41
3122;BME280;1571;52.524;14.104;2023-11-22T05:20:42;102316.53;;;-2.39;87.63
3122;BME280;1571;52.524;14.104;2023-11-22T05:23:11;102333.88;;;-2.41;87.28
3122;BME280;1571;52.524;14.104;2023-11-22T05:25:41;102343.53;;;-2.34;87.50
3122;BME280;1571;52.524;14.104;2023-11-22T05:28:09;102363.56;;;-2.78;87.84
3122;BME280;1571;52.524;14.104;2023-11-22T05:30:39;102362.25;;;-2.53;88.24
3122;BME280;1571;52.524;14.104;2023-11-22T05:33:07;102363.28;;;-2.45;88.17
3122;BME280;1571;52.524;14.104;2023-11-22T05:35:35;102370.44;;;-2.30;87.78
3122;BME280;1571;52.524;14.104;2023-11-22T05:38:04;102376.81;;;-2.64;88.36
3122;BME280;1571;52.524;14.104;2023-11-22T05:40:32;102382.56;;;-2.34;88.90
3122;BME280;1571;52.524;14.104;2023-11-22T05:43:01;102379.34;;;-2.17;88.81
3122;BME280;1571;52.524;14.104;2023-11-22T05:45:29;102378.28;;;-2.28;88.66
3122;BME280;1571;52.524;14.104;2023-11-22T05:47:59;102387.00;;;-2.26;89.02
3122;BME280;1571;52.524;14.104;2023-11-22T05:50:27;102391.34;;;-2.27;89.27
3122;BME280;1571;52.524;14.104;2023-11-22T05:52:56;102390.44;;;-2.29;89.54
3122;BME280;1571;52.524;14.104;2023-11-22T05:55:24;102386.09;;;-2.28;89.49
3122;BME280;1571;52.524;14.104;2023-11-22T05:57:52;102388.63;;;-2.33;89.81
3122;BME280;1571;52.524;14.104;2023-11-22T06:00:21;102379.97;;;-2.32;90.12
3122;BME280;1571;52.524;14.104;2023-11-22T06:02:49;102385.84;;;-2.44;90.26
3122;BME280;1571;52.524;14.104;2023-11-22T06:05:20;102400.53;;;-2.46;90.69
3122;BME280;1571;52.524;14.104;2023-11-22T06:07:49;102424.94;;;-2.85;91.21
3122;BME280;1571;52.524;14.104;2023-11-22T06:10:18;102437.56;;;-2.59;91.01
3122;BME280;1571;52.524;14.104;2023-11-22T06:12:47;102429.88;;;-2.53;90.61
3122;BME280;1571;52.524;14.104;2023-11-22T06:15:15;102434.50;;;-2.37;90.85
3122;BME280;1571;52.524;14.104;2023-11-22T06:17:45;102429.38;;;-2.34;90.54
3122;BME280;1571;52.524;14.104;2023-11-22T06:20:14;102428.97;;;-2.55;90.55
3122;BME280;1571;52.524;14.104;2023-11-22T06:22:44;102435.31;;;-2.41;90.61
3122;BME280;1571;52.524;14.104;2023-11-22T06:25:13;102429.31;;;-2.38;90.50
3122;BME280;1571;52.524;14.104;2023-11-22T06:27:41;102414.63;;;-2.33;90.77
3122;BME280;1571;52.524;14.104;2023-11-22T06:30:10;102414.53;;;-2.39;90.46
3122;BME280;1571;52.524;14.104;2023-11-22T06:32:39;102400.53;;;-2.47;90.54
3122;BME280;1571;52.524;14.104;2023-11-22T06:35:10;102406.53;;;-2.97;90.72
3122;BME280;1571;52.524;14.104;2023-11-22T06:37:41;102399.84;;;-2.83;91.87
3122;BME280;1571;52.524;14.104;2023-11-22T06:40:12;102393.47;;;-2.53;91.53
3122;BME280;1571;52.524;14.104;2023-11-22T06:42:40;102392.81;;;-2.43;91.13
3122;BME280;1571;52.524;14.104;2023-11-22T06:45:09;102392.56;;;-2.55;91.09
3122;BME280;1571;52.524;14.104;2023-11-22T06:47:40;102383.81;;;-2.60;91.13
3122;BME280;1571;52.524;14.104;2023-11-22T06:50:09;102401.25;;;-3.00;90.93
3122;BME280;1571;52.524;14.104;2023-11-22T06:52:38;102410.94;;;-3.72;92.21
3122;BME280;1571;52.524;14.104;2023-11-22T06:55:08;102431.59;;;-3.78;93.32
3122;BME280;1571;52.524;14.104;2023-11-22T06:57:38;102442.41;;;-3.60;93.66
3122;BME280;1571;52.524;14.104;2023-11-22T07:00:08;102439.25;;;-3.05;93.72
3122;BME280;1571;52.524;14.104;2023-11-22T07:02:37;102449.41;;;-3.16;93.58
3122;BME280;1571;52.524;14.104;2023-11-22T07:05:05;102457.44;;;-3.05;93.69
3122;BME280;1571;52.524;14.104;2023-11-22T07:07:35;102464.91;;;-2.80;93.24
3122;BME280;1571;52.524;14.104;2023-11-22T07:10:04;102473.88;;;-2.64;92.44
3122;BME280;1571;52.524;14.104;2023-11-22T07:12:33;102479.97;;;-2.63;92.12
3122;BME280;1571;52.524;14.104;2023-11-22T07:15:04;102486.91;;;-2.62;92.32
3122;BME280;1571;52.524;14.104;2023-11-22T07:17:33;102479.16;;;-2.59;92.51
3122;BME280;1571;52.524;14.104;2023-11-22T07:20:01;102480.91;;;-2.60;92.55
3122;BME280;1571;52.524;14.104;2023-11-22T07:22:32;102492.06;;;-2.64;92.58
3122;BME280;1571;52.524;14.104;2023-11-22T07:25:01;102487.78;;;-2.62;92.68
3122;BME280;1571;52.524;14.104;2023-11-22T07:27:30;102504.47;;;-2.52;92.97
3122;BME280;1571;52.524;14.104;2023-11-22T07:29:59;102507.28;;;-2.40;92.92
3122;BME280;1571;52.524;14.104;2023-11-22T07:32:29;102506.63;;;-2.29;92.65
3122;BME280;1571;52.524;14.104;2023-11-22T07:34:57;102510.31;;;-2.18;92.52
3122;BME280;1571;52.524;14.104;2023-11-22T07:37:30;102501.84;;;-2.06;92.80
3122;BME280;1571;52.524;14.104;2023-11-22T07:39:59;102500.91;;;-2.10;92.51
3122;BME280;1571;52.524;14.104;2023-11-22T07:42:27;102514.50;;;-2.26;91.95
3122;BME280;1571;52.524;14.104;2023-11-22T07:44:57;102509.22;;;-1.81;91.69
3122;BME280;1571;52.524;14.104;2023-11-22T07:47:25;102506.78;;;-1.73;91.54
3122;BME280;1571;52.524;14.104;2023-11-22T07:49:55;102514.00;;;-1.54;90.50
3122;BME280;1571;52.524;14.104;2023-11-22T07:52:23;102500.00;;;-1.62;90.03
3122;BME280;1571;52.524;14.104;2023-11-22T07:54:57;102486.47;;;-1.93;89.63
3122;BME280;1571;52.524;14.104;2023-11-22T07:57:25;102503.25;;;-2.24;89.76
3122;BME280;1571;52.524;14.104;2023-11-22T07:59:53;102488.69;;;-2.14;89.88
3122;BME280;1571;52.524;14.104;2023-11-22T08:02:22;102480.75;;;-1.70;89.35
3122;BME280;1571;52.524;14.104;2023-11-22T08:04:52;102484.28;;;-1.68;88.67
3122;BME280;1571;52.524;14.104;2023-11-22T08:07:22;102475.91;;;-1.49;88.07
3122;BME280;1571;52.524;14.104;2023-11-22T08:09:50;102472.25;;;-1.58;87.64
3122;BME280;1571;52.524;14.104;2023-11-22T08:12:19;102459.56;;;-1.35;87.74
3122;BME280;1571;52.524;14.104;2023-11-22T08:14:48;102465.53;;;-1.45;87.39
3122;BME280;1571;52.524;14.104;2023-11-22T08:17:16;102469.38;;;-1.19;86.82
3122;BME280;1571;52.524;14.104;2023-11-22T08:19:46;102474.13;;;-1.50;86.41
3122;BME280;1571;52.524;14.104;2023-11-22T08:22:16;102481.31;;;-1.33;86.19
3122;BME280;1571;52.524;14.104;2023-11-22T08:24:45;102483.09;;;-1.32;85.76
3122;BME280;1571;52.524;14.104;2023-11-22T08:27:14;102491.75;;;-1.33;85.36
3122;BME280;1571;52.524;14.104;2023-11-22T08:29:43;102491.19;;;-1.12;84.86
3122;BME280;1571;52.524;14.104;2023-11-22T08:32:13;102495.63;;;-1.05;84.30
3122;BME280;1571;52.524;14.104;2023-11-22T08:34:42;102498.41;;;-0.91;83.52
3122;BME280;1571;52.524;14.104;2023-11-22T08:37:12;102506.22;;;-0.93;83.66
3122;BME280;1571;52.524;14.104;2023-11-22T08:39:41;102507.13;;;-0.92;82.83
3122;BME280;1571;52.524;14.104;2023-11-22T08:42:11;102506.22;;;-0.94;82.03
3122;BME280;1571;52.524;14.104;2023-11-22T08:44:43;102507.03;;;-0.95;81.58
3122;BME280;1571;52.524;14.104;2023-11-22T08:47:12;102504.78;;;-0.69;81.03
3122;BME280;1571;52.524;14.104;2023-11-22T08:49:41;102507.91;;;-0.96;80.85
3122;BME280;1571;52.524;14.104;2023-11-22T08:52:09;102508.06;;;-0.84;80.99
3122;BME280;1571;52.524;14.104;2023-11-22T08:54:38;102512.38;;;-0.86;80.55
3122;BME280;1571;52.524;14.104;2023-11-22T08:57:06;102504.78;;;-0.68;80.05
3122;BME280;1571;52.524;14.104;2023-11-22T08:59:38;102496.84;;;-0.78;79.98
3122;BME280;1571;52.524;14.104;2023-11-22T09:02:06;102510.63;;;-0.89;80.32
3122;BME280;1571;52.524;14.104;2023-11-22T09:04:35;102499.53;;;-0.74;80.26
3122;BME280;1571;52.524;14.104;2023-11-22T09:07:05;102497.75;;;-0.75;80.71
3122;BME280;1571;52.524;14.104;2023-11-22T09:09:33;102490.91;;;-0.67;80.11
3122;BME280;1571;52.524;14.104;2023-11-22T09:12:04;102496.09;;;-0.70;79.84
3122;BME280;1571;52.524;14.104;2023-11-22T09:14:41;102504.75;;;-0.71;79.97
3122;BME280;1571;52.524;14.104;2023-11-22T09:17:09;102498.38;;;-0.93;79.58
3122;BME280;1571;52.524;14.104;2023-11-22T09:19:38;102496.22;;;-0.57;79.11
3122;BME280;1571;52.524;14.104;2023-11-22T09:22:06;102491.13;;;-0.48;78.69
3122;BME280;1571;52.524;14.104;2023-11-22T09:24:35;102491.81;;;-0.61;78.36
3122;BME280;1571;52.524;14.104;2023-11-22T09:27:04;102514.75;;;-0.34;77.64
3122;BME280;1571;52.524;14.104;2023-11-22T09:29:33;102507.06;;;-0.21;76.51
3122;BME280;1571;52.524;14.104;2023-11-22T09:32:03;102503.81;;;0.02;76.31
3122;BME280;1571;52.524;14.104;2023-11-22T09:34:33;102489.84;;;-0.03;76.35
3122;BME280;1571;52.524;14.104;2023-11-22T09:37:02;102480.19;;;-0.13;75.27
3122;BME280;1571;52.524;14.104;2023-11-22T09:39:30;102474.09;;;-0.09;75.72
3122;BME280;1571;52.524;14.104;2023-11-22T09:41:59;102476.69;;;-0.12;74.83
3122;BME280;1571;52.524;14.104;2023-11-22T09:44:28;102483.75;;;-0.01;75.67
3122;BME280;1571;52.524;14.104;2023-11-22T09:46:56;102479.31;;;-0.09;75.12
3122;BME280;1571;52.524;14.104;2023-11-22T09:49:28;102459.16;;;-0.29;76.29
3122;BME280;1571;52.524;14.104;2023-11-22T09:52:01;102461.94;;;-0.09;75.66
3122;BME280;1571;52.524;14.104;2023-11-22T09:54:31;102458.56;;;0.00;75.83
3122;BME280;1571;52.524;14.104;2023-11-22T09:57:01;102467.25;;;0.02;76.20
3122;BME280;1571;52.524;14.104;2023-11-22T09:59:36;102459.53;;;0.17;76.81
3122;BME280;1571;52.524;14.104;2023-11-22T10:02:06;102454.38;;;0.20;75.85
3122;BME280;1571;52.524;14.104;2023-11-22T10:04:36;102457.66;;;-0.02;75.05
3122;BME280;1571;52.524;14.104;2023-11-22T10:07:05;102460.22;;;-0.08;75.75
3122;BME280;1571;52.524;14.104;2023-11-22T10:09:33;102463.72;;;-0.03;75.83
3122;BME280;1571;52.524;14.104;2023-11-22T10:12:05;102469.75;;;-0.10;75.56
3122;BME280;1571;52.524;14.104;2023-11-22T10:14:34;102483.78;;;0.01;75.98
3122;BME280;1571;52.524;14.104;2023-11-22T10:17:03;102481.19;;;0.04;75.53
3122;BME280;1571;52.524;14.104;2023-11-22T10:19:32;102475.34;;;0.36;75.84
3122;BME280;1571;52.524;14.104;2023-11-22T10:22:07;102477.22;;;0.51;74.90
3122;BME280;1571;52.524;14.104;2023-11-22T10:24:35;102501.19;;;0.02;75.49
3122;BME280;1571;52.524;14.104;2023-11-22T10:27:04;102505.50;;;-0.03;75.26
3122;BME280;1571;52.524;14.104;2023-11-22T10:29:33;102506.75;;;0.39;75.66
3122;BME280;1571;52.524;14.104;2023-11-22T10:32:04;102511.88;;;0.28;75.32
3122;BME280;1571;52.524;14.104;2023-11-22T10:34:34;102517.31;;;0.50;75.35
3122;BME280;1571;52.524;14.104;2023-11-22T10:37:03;102513.91;;;0.65;74.20
3122;BME280;1571;52.524;14.104;2023-11-22T10:39:33;102507.78;;;0.59;74.15
3122;BME280;1571;52.524;14.104;2023-11-22T10:42:05;102517.75;;;0.04;74.51
3122;BME280;1571;52.524;14.104;2023-11-22T10:44:37;102505.00;;;0.39;73.97
3122;BME280;1571;52.524;14.104;2023-11-22T10:47:06;102505.09;;;0.49;74.03
3122;BME280;1571;52.524;14.104;2023-11-22T10:49:35;102511.22;;;0.55;75.05
3122;BME280;1571;52.524;14.104;2023-11-22T10:52:07;102508.72;;;0.68;74.88
3122;BME280;1571;52.524;14.104;2023-11-22T10:54:44;102499.78;;;0.36;73.14
3122;BME280;1571;52.524;14.104;2023-11-22T10:57:19;102504.22;;;0.51;73.06
3122;BME280;1571;52.524;14.104;2023-11-22T10:59:54;102485.22;;;0.78;72.78
3122;BME280;1571;52.524;14.104;2023-11-22T11:02:23;102496.69;;;0.99;72.97
3122;BME280;1571;52.524;14.104;2023-11-22T11:04:59;102501.88;;;0.94;72.51
3122;BME280;1571;52.524;14.104;2023-11-22T11:07:30;102503.63;;;0.92;72.92
3122;BME280;1571;52.524;14.104;2023-11-22T11:10:02;102498.13;;;0.54;71.36
3122;BME280;1571;52.524;14.104;2023-11-22T11:12:44;102497.34;;;0.62;72.07
3122;BME280;1571;52.524;14.104;2023-11-22T11:15:14;102507.09;;;0.83;72.45
3122;BME280;1571;52.524;14.104;2023-11-22T11:17:44;102499.34;;;1.07;72.46
3122;BME280;1571;52.524;14.104;2023-11-22T11:20:15;102498.41;;;0.91;71.53
3122;BME280;1571;52.524;14.104;2023-11-22T11:22:46;102501.75;;;0.68;70.79
3122;BME280;1571;52.524;14.104;2023-11-22T11:25:17;102492.22;;;0.81;71.30
3122;BME280;1571;52.524;14.104;2023-11-22T11:27:56;102481.69;;;0.69;70.87
3122;BME280;1571;52.524;14.104;2023-11-22T11:30:43;102467.97;;;1.11;71.57
3122;BME280;1571;52.524;14.104;2023-11-22T11:33:13;102449.75;;;1.27;71.05
3122;BME280;1571;52.524;14.104;2023-11-22T11:35:46;102457.63;;;1.40;70.01
3122;BME280;1571;52.524;14.104;2023-11-22T11:38:19;102440.06;;;1.12;69.60
3122;BME280;1571;52.524;14.104;2023-11-22T11:40:49;102448.06;;;1.64;70.05
3122;BME280;1571;52.524;14.104;2023-11-22T11:43:20;102440.16;;;1.33;70.48
3122;BME280;1571;52.524;14.104;2023-11-22T11:45:49;102429.72;;;1.55;70.50
3122;BME280;1571;52.524;14.104;2023-11-22T11:48:17;102426.25;;;1.59;70.49
3122;BME280;1571;52.524;14.104;2023-11-22T11:50:47;102427.88;;;1.17;69.52
3122;BME280;1571;52.524;14.104;2023-11-22T11:53:18;102432.19;;;1.06;69.97
3122;BME280;1571;52.524;14.104;2023-11-22T11:55:49;102441.59;;;0.67;70.40
3122;BME280;1571;52.524;14.104;2023-11-22T11:58:20;102438.31;;;1.04;70.15
3122;BME280;1571;52.524;14.104;2023-11-22T12:00:51;102424.34;;;1.02;70.46
3122;BME280;1571;52.524;14.104;2023-11-22T12:03:19;102426.16;;;1.19;69.69
3122;BME280;1571;52.524;14.104;2023-11-22T12:05:49;102415.69;;;1.19;70.34
3122;BME280;1571;52.524;14.104;2023-11-22T12:08:17;102414.78;;;1.08;70.19
3122;BME280;1571;52.524;14.104;2023-11-22T12:10:47;102393.06;;;1.42;70.83
3122;BME280;1571;52.524;14.104;2023-11-22T12:13:20;102387.81;;;1.30;71.28
3122;BME280;1571;52.524;14.104;2023-11-22T12:15:48;102383.47;;;1.35;71.76
3122;BME280;1571;52.524;14.104;2023-11-22T12:18:18;102390.41;;;1.25;72.46
3122;BME280;1571;52.524;14.104;2023-11-22T12:20:54;102376.50;;;1.66;71.38
3122;BME280;1571;52.524;14.104;2023-11-22T12:23:23;102374.78;;;1.70;72.59
3122;BME280;1571;52.524;14.104;2023-11-22T12:25:56;102368.66;;;1.50;72.86
3122;BME280;1571;52.524;14.104;2023-11-22T12:28:27;102354.72;;;1.83;72.52
3122;BME280;1571;52.524;14.104;2023-11-22T12:31:06;102332.00;;;1.86;71.75
3122;BME280;1571;52.524;14.104;2023-11-22T12:33:35;102334.63;;;2.05;71.51
3122;BME280;1571;52.524;14.104;2023-11-22T12:36:04;102330.25;;;2.05;70.48
3122;BME280;1571;52.524;14.104;2023-11-22T12:38:34;102335.44;;;2.12;70.21
3122;BME280;1571;52.524;14.104;2023-11-22T12:41:05;102326.75;;;2.14;69.48
3122;BME280;1571;52.524;14.104;2023-11-22T12:43:36;102317.03;;;2.41;69.53
3122;BME280;1571;52.524;14.104;2023-11-22T12:46:16;102309.22;;;2.35;68.66
3122;BME280;1571;52.524;14.104;2023-11-22T12:48:45;102307.47;;;2.18;67.49
3122;BME280;1571;52.524;14.104;2023-11-22T12:51:15;102292.63;;;2.20;67.63
3122;BME280;1571;52.524;14.104;2023-11-22T12:53:45;102302.28;;;2.06;67.67
3122;BME280;1571;52.524;14.104;2023-11-22T12:56:13;102329.34;;;2.06;67.24
3122;BME280;1571;52.524;14.104;2023-11-22T12:58:43;102348.56;;;2.19;66.34
3122;BME280;1571;52.524;14.104;2023-11-22T13:01:11;102359.88;;;2.34;66.84
3122;BME280;1571;52.524;14.104;2023-11-22T13:03:40;102365.19;;;2.03;65.59
3122;BME280;1571;52.524;14.104;2023-11-22T13:06:09;102355.56;;;1.88;64.58
3122;BME280;1571;52.524;14.104;2023-11-22T13:08:37;102372.16;;;1.81;65.86
3122;BME280;1571;52.524;14.104;2023-11-22T13:11:07;102377.38;;;2.07;66.84
3122;BME280;1571;52.524;14.104;2023-11-22T13:13:35;102386.94;;;2.36;67.48